Terminal Aerodrome Forecast
Issued by NWS North Platte, NE

Home | Current Version | Previous Version | Graphics & Text | Print | Product List | Glossary On
Versions: 1 2 3 4 5 6 7 8 9 10 11 12 13 14 15 16 17 18 19 20 21 22 23 24 25 26 27
535
FTUS43 KLBF 251120
TAFVTN
TAF
KVTN 251120Z 2512/2612 01010KT P6SM VCSH BKN008 BKN015
     FM251300 01008KT P6SM OVC007
     FM251800 36008KT P6SM VCSH BKN008 OVC015
     FM252200 36008KT 5SM -SHRA BKN008 OVC015
     FM260300 34005KT P6SM VCSH OVC008
     FM260600 31005KT 5SM BR BKN007=

USA.gov is the U.S. government's official web portal to all federal, state and local government web resources and services.